createdAt,value
2023-08-08T00:00:00.119Z,2.73
2023-08-08T00:00:51.680Z,2.39
2023-08-08T00:01:43.982Z,2.49
2023-08-08T00:02:35.562Z,2.78
2023-08-08T00:03:27.375Z,2.57
2023-08-08T00:04:19.263Z,2.73
2023-08-08T00:05:10.699Z,2.87
2023-08-08T00:06:02.149Z,2.91
2023-08-08T00:06:53.549Z,2.79
2023-08-08T00:07:44.971Z,2.83
2023-08-08T00:08:37.064Z,2.54
2023-08-08T00:09:28.785Z,2.77
2023-08-08T00:10:20.251Z,2.96
2023-08-08T00:11:12.839Z,3.16
2023-08-08T00:12:05.038Z,3.01
2023-08-08T00:12:56.478Z,2.76
2023-08-08T00:13:47.976Z,2.72
2023-08-08T00:14:39.428Z,2.98
2023-08-08T00:15:31.126Z,2.92
2023-08-08T00:16:23.356Z,2.59
2023-08-08T00:17:14.950Z,2.99
2023-08-08T00:18:06.456Z,2.76
2023-08-08T00:18:57.907Z,3.18
2023-08-08T00:19:49.266Z,2.96
2023-08-08T00:20:40.808Z,2.84
2023-08-08T00:21:32.223Z,2.80
2023-08-08T00:22:23.640Z,3.05
2023-08-08T00:23:15.044Z,2.89
2023-08-08T00:24:06.532Z,3.06
2023-08-08T00:24:58.000Z,2.73
2023-08-08T00:25:51.473Z,3.09
2023-08-08T00:26:42.864Z,2.90
2023-08-08T00:27:34.810Z,2.77
2023-08-08T00:28:26.277Z,2.91
2023-08-08T00:29:18.365Z,2.90
2023-08-08T00:30:10.957Z,2.80
2023-08-08T00:31:02.398Z,2.77
2023-08-08T00:31:54.294Z,2.70
2023-08-08T00:32:45.781Z,2.84
2023-08-08T00:33:37.298Z,2.87
2023-08-08T00:34:28.972Z,2.66
2023-08-08T00:35:20.420Z,2.54
2023-08-08T00:36:11.842Z,2.97
2023-08-08T00:37:03.445Z,2.40
2023-08-08T00:37:54.876Z,2.84
2023-08-08T00:38:46.259Z,2.94
2023-08-08T00:39:37.642Z,3.03
2023-08-08T00:40:29.202Z,2.81
2023-08-08T00:41:20.707Z,2.88
2023-08-08T00:42:12.679Z,2.49
2023-08-08T00:43:04.238Z,2.95
2023-08-08T00:43:55.771Z,2.80
2023-08-08T00:44:48.232Z,2.84
2023-08-08T00:45:43.739Z,2.81
2023-08-08T00:46:35.277Z,2.74
2023-08-08T00:47:26.792Z,3.35
2023-08-08T00:48:20.296Z,3.39
2023-08-08T00:49:12.221Z,3.61
2023-08-08T00:50:05.204Z,3.12
2023-08-08T00:50:56.694Z,2.78
2023-08-08T00:51:49.046Z,2.50
2023-08-08T00:52:44.403Z,3.07
2023-08-08T00:53:36.017Z,3.05
2023-08-08T00:54:27.519Z,2.83
2023-08-08T00:55:19.206Z,2.78
2023-08-08T00:56:12.844Z,2.88
2023-08-08T00:57:04.657Z,3.15
2023-08-08T00:57:57.751Z,3.16
2023-08-08T00:58:51.465Z,3.10
2023-08-08T00:59:43.035Z,3.01
2023-08-08T01:00:34.595Z,2.86
2023-08-08T01:01:26.172Z,3.29
2023-08-08T01:02:17.814Z,3.27
2023-08-08T01:03:09.825Z,2.88
2023-08-08T01:04:01.558Z,2.59
2023-08-08T01:04:53.235Z,2.88
2023-08-08T01:05:52.311Z,3.08
2023-08-08T01:06:58.738Z,3.05
2023-08-08T01:08:07.688Z,3.02
2023-08-08T01:09:05.936Z,3.13
2023-08-08T01:10:09.556Z,2.79
2023-08-08T01:11:01.978Z,2.64
2023-08-08T01:11:54.999Z,2.61
2023-08-08T01:12:51.455Z,2.85
2023-08-08T01:13:45.399Z,2.69
2023-08-08T01:14:39.550Z,2.83
2023-08-08T01:15:36.860Z,2.98
2023-08-08T01:16:30.722Z,2.81
2023-08-08T01:17:23.949Z,2.82
2023-08-08T01:18:17.340Z,3.02
2023-08-08T01:19:15.847Z,2.88
2023-08-08T01:20:09.384Z,2.73
2023-08-08T01:21:02.237Z,2.73
2023-08-08T01:21:58.152Z,2.97
2023-08-08T01:23:29.320Z,2.71
2023-08-08T01:24:23.363Z,3.07
2023-08-08T01:25:15.041Z,2.83
2023-08-08T01:26:06.729Z,2.63
2023-08-08T01:26:58.357Z,2.61
2023-08-08T01:27:50.050Z,2.88
2023-08-08T01:28:43.359Z,3.25
2023-08-08T01:29:35.232Z,2.96
2023-08-08T01:30:26.670Z,2.83
2023-08-08T01:31:18.229Z,3.09
2023-08-08T01:32:10.023Z,3.13
2023-08-08T01:33:01.774Z,3.36
2023-08-08T01:33:54.423Z,2.81
2023-08-08T01:34:45.873Z,3.30
2023-08-08T01:35:42.817Z,2.96
2023-08-08T01:36:49.431Z,3.54
2023-08-08T01:37:47.203Z,3.37
2023-08-08T01:38:44.340Z,3.43
2023-08-08T01:39:38.185Z,3.30
2023-08-08T01:40:31.238Z,3.18
2023-08-08T01:41:24.933Z,2.95
2023-08-08T01:42:25.589Z,3.14
2023-08-08T01:43:19.472Z,3.35
2023-08-08T01:44:11.925Z,3.23
2023-08-08T01:45:05.090Z,2.89
2023-08-08T01:45:56.846Z,3.48
2023-08-08T01:46:48.448Z,3.28
2023-08-08T01:47:39.949Z,3.55
2023-08-08T01:48:31.770Z,3.45
2023-08-08T01:49:23.197Z,3.27
2023-08-08T01:50:14.681Z,3.59
2023-08-08T01:51:06.462Z,3.39
2023-08-08T01:51:58.114Z,3.70
2023-08-08T01:52:49.786Z,3.26
2023-08-08T01:53:41.243Z,3.04
2023-08-08T01:54:33.509Z,3.15
2023-08-08T01:55:25.534Z,3.42
2023-08-08T01:56:16.933Z,3.31
2023-08-08T01:57:08.354Z,3.17
2023-08-08T01:57:59.881Z,3.26
2023-08-08T01:58:51.385Z,3.35
2023-08-08T01:59:42.919Z,3.02
2023-08-08T02:00:34.355Z,3.55
2023-08-08T02:01:25.768Z,3.39
2023-08-08T02:02:18.521Z,3.01
2023-08-08T02:03:10.064Z,3.29
2023-08-08T02:04:02.182Z,3.26
2023-08-08T02:04:53.616Z,3.11
2023-08-08T02:05:45.031Z,3.14
2023-08-08T02:06:36.525Z,3.49
2023-08-08T02:07:28.289Z,3.74
2023-08-08T02:08:19.693Z,3.31
2023-08-08T02:09:11.749Z,3.48
2023-08-08T02:10:03.631Z,3.12
2023-08-08T02:10:56.448Z,3.24
2023-08-08T02:11:47.846Z,3.28
2023-08-08T02:12:39.299Z,3.18
2023-08-08T02:13:31.419Z,3.06
2023-08-08T02:14:22.974Z,2.98
2023-08-08T02:15:14.456Z,2.85
2023-08-08T02:16:06.387Z,2.96
2023-08-08T02:16:57.803Z,2.91
2023-08-08T02:17:51.229Z,3.13
2023-08-08T02:18:42.704Z,3.21
2023-08-08T02:19:34.367Z,2.87
2023-08-08T02:20:25.811Z,2.88
2023-08-08T02:21:17.925Z,3.13
2023-08-08T02:22:10.103Z,3.04
2023-08-08T02:23:01.476Z,3.20
2023-08-08T02:23:53.000Z,3.02
2023-08-08T02:24:44.899Z,3.10
2023-08-08T02:25:36.354Z,2.78
2023-08-08T02:26:27.795Z,2.91
2023-08-08T02:27:19.396Z,3.15
2023-08-08T02:28:10.996Z,2.75
2023-08-08T02:29:02.458Z,3.15
2023-08-08T02:29:53.857Z,3.49
2023-08-08T02:30:45.437Z,3.03
2023-08-08T02:31:36.894Z,2.96
2023-08-08T02:32:29.050Z,3.01
2023-08-08T02:33:20.567Z,2.83
2023-08-08T02:34:12.021Z,3.07
2023-08-08T02:35:03.553Z,2.76
2023-08-08T02:35:55.025Z,3.11
2023-08-08T02:36:46.467Z,3.26
2023-08-08T02:37:37.894Z,2.85
2023-08-08T02:38:29.396Z,2.90
2023-08-08T02:39:20.872Z,3.03
2023-08-08T02:40:12.263Z,2.97
2023-08-08T02:41:03.763Z,2.89
2023-08-08T02:41:55.142Z,2.91
2023-08-08T02:42:46.940Z,2.55
2023-08-08T02:43:38.490Z,2.73
2023-08-08T02:44:29.996Z,2.86
2023-08-08T02:45:21.408Z,2.90
2023-08-08T02:46:12.805Z,2.53
2023-08-08T02:47:04.585Z,2.69
2023-08-08T02:47:56.108Z,2.95
2023-08-08T02:48:47.588Z,2.81
2023-08-08T02:49:39.063Z,2.74
2023-08-08T02:50:30.477Z,2.77
2023-08-08T02:51:21.993Z,2.89
2023-08-08T02:52:13.426Z,2.83
2023-08-08T02:53:05.028Z,2.69
2023-08-08T02:54:01.237Z,2.72
2023-08-08T02:54:54.456Z,3.07
2023-08-08T02:55:45.945Z,2.93
2023-08-08T02:56:37.676Z,2.91
2023-08-08T02:57:29.167Z,2.80
2023-08-08T02:58:21.219Z,2.67
2023-08-08T02:59:12.794Z,2.99
2023-08-08T03:00:05.671Z,2.63
2023-08-08T03:01:04.179Z,2.67
2023-08-08T03:01:56.082Z,3.00
2023-08-08T03:02:47.551Z,2.74
2023-08-08T03:03:40.385Z,2.58
2023-08-08T03:04:32.999Z,2.60
2023-08-08T03:05:24.620Z,2.57
2023-08-08T03:06:16.247Z,2.70
2023-08-08T03:07:07.782Z,2.98
2023-08-08T03:08:01.291Z,2.70
2023-08-08T03:08:53.191Z,2.70
2023-08-08T03:09:44.586Z,2.55
2023-08-08T03:10:37.493Z,2.38
2023-08-08T03:11:29.155Z,2.91
2023-08-08T03:12:20.848Z,2.65
2023-08-08T03:13:12.506Z,2.77
2023-08-08T03:14:04.789Z,2.53
2023-08-08T03:14:57.841Z,2.65
2023-08-08T03:15:49.594Z,2.55
2023-08-08T03:16:41.382Z,2.44
2023-08-08T03:17:35.749Z,2.68
2023-08-08T03:18:27.258Z,2.45
2023-08-08T03:19:19.752Z,2.21
2023-08-08T03:20:12.629Z,2.61
2023-08-08T03:21:04.621Z,2.63
2023-08-08T03:21:59.359Z,2.63
2023-08-08T03:22:51.383Z,2.92
2023-08-08T03:23:42.900Z,2.59
2023-08-08T03:24:34.302Z,2.65
2023-08-08T03:25:25.955Z,2.76
2023-08-08T03:26:17.460Z,2.72
2023-08-08T03:27:12.046Z,2.54
2023-08-08T03:28:03.706Z,2.92
2023-08-08T03:28:55.582Z,2.73
2023-08-08T03:29:54.166Z,2.56
2023-08-08T03:30:46.097Z,2.73
2023-08-08T03:31:39.268Z,2.84
2023-08-08T03:32:30.797Z,2.84
2023-08-08T03:33:22.215Z,2.70
2023-08-08T03:34:14.310Z,2.55
2023-08-08T03:35:07.172Z,2.89
2023-08-08T03:35:59.531Z,2.64
2023-08-08T03:36:51.353Z,2.77
2023-08-08T03:37:43.425Z,2.42
2023-08-08T03:38:35.277Z,2.57
2023-08-08T03:39:27.515Z,2.70
2023-08-08T03:40:19.027Z,2.59
2023-08-08T03:41:10.702Z,2.58
2023-08-08T03:42:02.373Z,2.66
2023-08-08T03:42:54.680Z,2.64
2023-08-08T03:43:46.125Z,2.69
2023-08-08T03:44:37.828Z,2.56
2023-08-08T03:45:29.766Z,2.48
2023-08-08T03:46:21.224Z,2.51
2023-08-08T03:47:19.226Z,2.73
2023-08-08T03:48:12.133Z,2.58
2023-08-08T03:49:04.855Z,2.40
2023-08-08T03:49:58.219Z,2.55
2023-08-08T03:50:49.749Z,2.48
2023-08-08T03:51:41.195Z,2.47
2023-08-08T03:52:35.248Z,2.41
2023-08-08T03:53:26.630Z,2.52
2023-08-08T03:54:19.310Z,2.83
2023-08-08T03:55:10.801Z,2.78
2023-08-08T03:56:03.520Z,2.41
2023-08-08T03:56:57.310Z,2.49
2023-08-08T03:57:50.285Z,2.36
2023-08-08T03:58:41.780Z,2.29
2023-08-08T03:59:33.261Z,2.50
2023-08-08T04:00:24.877Z,2.38
2023-08-08T04:01:16.307Z,2.80
2023-08-08T04:02:07.855Z,2.48
2023-08-08T04:02:59.993Z,2.56
2023-08-08T04:03:51.514Z,2.53
2023-08-08T04:04:42.995Z,2.53
2023-08-08T04:05:34.404Z,2.50
2023-08-08T04:06:25.934Z,2.19
2023-08-08T04:07:17.612Z,2.39
2023-08-08T04:08:09.023Z,2.67
2023-08-08T04:09:01.871Z,2.38
2023-08-08T04:09:53.404Z,2.45
2023-08-08T04:10:48.154Z,2.68
2023-08-08T04:11:39.556Z,2.78
2023-08-08T04:12:31.087Z,2.84
2023-08-08T04:13:22.650Z,2.77
2023-08-08T04:14:14.157Z,2.54
2023-08-08T04:15:05.971Z,2.51
2023-08-08T04:15:57.392Z,2.50
2023-08-08T04:16:48.878Z,2.38
2023-08-08T04:17:40.547Z,2.59
2023-08-08T04:18:31.948Z,2.42
2023-08-08T04:19:24.198Z,2.37
2023-08-08T04:20:15.730Z,2.37
2023-08-08T04:21:07.231Z,2.43
2023-08-08T04:21:58.956Z,2.44
2023-08-08T04:22:50.647Z,2.34
2023-08-08T04:23:42.031Z,2.55
2023-08-08T04:24:33.581Z,2.78
2023-08-08T04:25:25.054Z,2.75
2023-08-08T04:26:16.489Z,2.62
2023-08-08T04:27:07.903Z,2.78
2023-08-08T04:27:59.318Z,2.90
2023-08-08T04:28:50.760Z,2.90
2023-08-08T04:29:42.167Z,2.34
2023-08-08T04:30:33.572Z,2.72
2023-08-08T04:31:27.918Z,2.81
2023-08-08T04:32:19.315Z,2.50
2023-08-08T04:33:11.044Z,2.70
2023-08-08T04:34:03.074Z,2.83
2023-08-08T04:34:54.537Z,2.96
2023-08-08T04:35:46.357Z,2.75
2023-08-08T04:36:37.853Z,2.40
2023-08-08T04:37:29.218Z,2.36
2023-08-08T04:38:20.681Z,2.50
2023-08-08T04:39:12.085Z,2.61
2023-08-08T04:40:04.662Z,2.75
2023-08-08T04:40:56.142Z,3.15
2023-08-08T04:41:47.569Z,2.80
2023-08-08T04:42:39.118Z,2.96
2023-08-08T04:43:30.755Z,3.18
2023-08-08T04:44:22.145Z,3.27
2023-08-08T04:45:14.030Z,3.10
2023-08-08T04:46:05.589Z,2.85
2023-08-08T04:46:57.047Z,3.11
2023-08-08T04:47:48.929Z,3.00
2023-08-08T04:48:40.567Z,3.01
2023-08-08T04:49:31.981Z,3.00
2023-08-08T04:50:23.464Z,3.01
2023-08-08T04:51:14.972Z,3.26
2023-08-08T04:52:06.801Z,3.07
2023-08-08T04:52:58.210Z,2.81
2023-08-08T04:53:49.567Z,2.87
2023-08-08T04:54:41.025Z,2.58
2023-08-08T04:55:32.480Z,2.69
2023-08-08T04:56:23.992Z,2.55
2023-08-08T04:57:15.460Z,2.70
2023-08-08T04:58:06.970Z,3.06
2023-08-08T04:58:58.557Z,3.00
2023-08-08T04:59:50.267Z,2.85
2023-08-08T05:00:41.770Z,2.81
2023-08-08T05:01:33.194Z,2.93
2023-08-08T05:02:24.582Z,2.88
2023-08-08T05:03:16.036Z,3.18
2023-08-08T05:04:07.520Z,3.13
2023-08-08T05:04:59.033Z,3.15
2023-08-08T05:05:50.434Z,3.07
2023-08-08T05:06:41.806Z,3.14
2023-08-08T05:07:33.748Z,3.17
2023-08-08T05:08:25.148Z,2.84
2023-08-08T05:09:16.871Z,3.22
2023-08-08T05:10:08.324Z,3.40
2023-08-08T05:10:59.716Z,3.37
2023-08-08T05:11:51.097Z,3.49
2023-08-08T05:12:43.298Z,3.22
2023-08-08T05:13:34.727Z,3.14
2023-08-08T05:14:26.169Z,3.54
2023-08-08T05:15:17.843Z,3.24
2023-08-08T05:16:09.408Z,3.32
2023-08-08T05:17:03.640Z,3.40
2023-08-08T05:17:56.134Z,3.65
2023-08-08T05:18:47.645Z,3.70
2023-08-08T05:19:39.103Z,3.48
2023-08-08T05:20:30.501Z,3.31
2023-08-08T05:21:22.867Z,3.18
2023-08-08T05:22:14.383Z,3.39
2023-08-08T05:23:05.794Z,3.42
2023-08-08T05:23:57.205Z,3.50
2023-08-08T05:24:48.699Z,3.60
2023-08-08T05:25:41.525Z,3.58
2023-08-08T05:26:32.998Z,3.62
2023-08-08T05:27:24.415Z,3.70
2023-08-08T05:28:15.814Z,3.80
2023-08-08T05:29:07.196Z,4.16
2023-08-08T05:29:58.640Z,3.80
2023-08-08T05:30:50.190Z,4.04
2023-08-08T05:31:41.916Z,4.13
2023-08-08T05:32:33.464Z,3.41
2023-08-08T05:33:24.916Z,3.45
2023-08-08T05:34:16.467Z,3.75
2023-08-08T05:35:08.978Z,3.69
2023-08-08T05:36:00.467Z,4.09
2023-08-08T05:37:01.885Z,3.97
2023-08-08T05:38:02.051Z,3.80
2023-08-08T05:38:53.501Z,3.59
2023-08-08T05:39:45.842Z,3.89
2023-08-08T05:40:37.535Z,3.57
2023-08-08T05:41:28.946Z,4.00
2023-08-08T05:42:20.594Z,4.26
2023-08-08T05:43:17.804Z,4.15
2023-08-08T05:44:09.239Z,4.14
2023-08-08T05:45:00.705Z,4.00
2023-08-08T05:45:52.177Z,3.76
2023-08-08T05:46:43.556Z,4.03
2023-08-08T05:47:35.110Z,3.87
2023-08-08T05:48:26.702Z,4.14
2023-08-08T05:49:18.256Z,4.01
2023-08-08T05:50:10.141Z,4.44
2023-08-08T05:51:03.713Z,3.93
2023-08-08T05:51:55.302Z,4.01
2023-08-08T05:52:46.838Z,4.00
2023-08-08T05:53:39.356Z,4.12
2023-08-08T05:54:30.896Z,4.37
2023-08-08T05:55:22.323Z,4.06
2023-08-08T05:56:14.825Z,3.97
2023-08-08T05:57:06.627Z,4.12
2023-08-08T05:57:58.188Z,4.37
2023-08-08T05:58:49.593Z,3.98
2023-08-08T05:59:41.790Z,4.48
2023-08-08T06:00:33.264Z,4.14
2023-08-08T06:01:24.713Z,4.59
2023-08-08T06:02:16.126Z,4.24
2023-08-08T06:03:07.705Z,4.35
2023-08-08T06:04:00.293Z,4.20
2023-08-08T06:04:51.756Z,4.36
2023-08-08T06:05:43.164Z,4.36
2023-08-08T06:06:34.820Z,4.43
2023-08-08T06:07:26.361Z,4.37
2023-08-08T06:08:17.834Z,4.28
2023-08-08T06:09:09.742Z,4.77
2023-08-08T06:10:01.295Z,4.40
2023-08-08T06:10:52.676Z,4.45
2023-08-08T06:11:44.156Z,4.02
2023-08-08T06:12:35.849Z,3.71
2023-08-08T06:13:27.262Z,4.32
2023-08-08T06:14:18.729Z,4.68
2023-08-08T06:15:10.449Z,4.47
2023-08-08T06:16:02.922Z,4.06
2023-08-08T06:16:54.397Z,4.23
2023-08-08T06:17:45.863Z,4.23
2023-08-08T06:18:37.414Z,4.51
2023-08-08T06:19:28.914Z,4.61
2023-08-08T06:20:20.479Z,4.46
2023-08-08T06:21:12.362Z,4.23
2023-08-08T06:22:04.426Z,4.60
2023-08-08T06:22:56.126Z,4.76
2023-08-08T06:23:48.677Z,4.56
2023-08-08T06:24:40.681Z,4.61
2023-08-08T06:25:34.490Z,4.28
2023-08-08T06:26:26.331Z,4.63
2023-08-08T06:27:18.726Z,4.53
2023-08-08T06:28:10.151Z,4.42
2023-08-08T06:29:01.535Z,4.42
2023-08-08T06:29:53.010Z,4.28
2023-08-08T06:30:44.692Z,4.02
2023-08-08T06:31:36.173Z,3.98
2023-08-08T06:32:27.778Z,4.41
2023-08-08T06:33:19.228Z,4.12
2023-08-08T06:34:10.646Z,4.27
2023-08-08T06:35:02.031Z,3.76
2023-08-08T06:35:53.788Z,3.90
2023-08-08T06:36:47.872Z,3.84
2023-08-08T06:37:39.453Z,3.87
2023-08-08T06:38:34.712Z,4.08
2023-08-08T06:39:26.588Z,3.70
2023-08-08T06:40:18.647Z,3.86
2023-08-08T06:41:10.273Z,3.83
2023-08-08T06:42:02.103Z,3.86
2023-08-08T06:43:04.414Z,3.99
2023-08-08T06:43:55.861Z,3.92
2023-08-08T06:44:47.409Z,3.60
2023-08-08T06:45:39.964Z,3.43
2023-08-08T06:46:31.460Z,3.35
2023-08-08T06:47:22.839Z,3.63
2023-08-08T06:48:14.288Z,3.23
2023-08-08T06:49:07.907Z,3.46
2023-08-08T06:49:59.374Z,3.60
2023-08-08T06:50:50.923Z,3.44
2023-08-08T06:51:42.359Z,3.80
2023-08-08T06:52:33.796Z,3.67
2023-08-08T06:53:25.260Z,3.51
2023-08-08T06:54:16.733Z,3.68
2023-08-08T06:55:08.639Z,3.26
2023-08-08T06:56:00.035Z,3.94
2023-08-08T06:56:51.608Z,3.75
2023-08-08T06:57:43.144Z,3.52
2023-08-08T06:58:34.566Z,3.38
2023-08-08T06:59:26.435Z,3.40
2023-08-08T07:00:18.020Z,3.60
2023-08-08T07:01:10.693Z,3.47
2023-08-08T07:02:02.181Z,3.24
2023-08-08T07:02:53.987Z,3.44
2023-08-08T07:03:45.932Z,3.24
2023-08-08T07:04:37.397Z,3.42
2023-08-08T07:05:28.938Z,3.49
2023-08-08T07:06:20.459Z,3.27
2023-08-08T07:07:11.850Z,3.40
2023-08-08T07:08:03.468Z,3.39
2023-08-08T07:08:57.592Z,3.50
2023-08-08T07:09:49.803Z,3.66
2023-08-08T07:10:41.303Z,3.39
2023-08-08T07:11:32.725Z,3.57
2023-08-08T07:12:24.163Z,3.80
2023-08-08T07:13:16.396Z,3.88
2023-08-08T07:14:07.876Z,3.81
2023-08-08T07:14:59.269Z,4.05
2023-08-08T07:15:50.714Z,4.02
2023-08-08T07:16:42.310Z,3.81
2023-08-08T07:17:33.767Z,4.12
2023-08-08T07:18:25.358Z,4.13
2023-08-08T07:19:16.880Z,3.67
2023-08-08T07:20:09.407Z,3.80
2023-08-08T07:21:02.040Z,3.69
2023-08-08T07:21:53.492Z,3.72
2023-08-08T07:22:44.957Z,3.93
2023-08-08T07:23:36.366Z,3.70
2023-08-08T07:24:29.585Z,3.65
2023-08-08T07:25:21.010Z,3.88
2023-08-08T07:26:12.705Z,3.85
2023-08-08T07:27:04.483Z,4.00
2023-08-08T07:27:56.052Z,3.54
2023-08-08T07:28:47.514Z,4.01
2023-08-08T07:29:38.943Z,3.81
2023-08-08T07:30:30.334Z,4.41
2023-08-08T07:31:21.771Z,4.30
2023-08-08T07:32:13.167Z,4.23
2023-08-08T07:33:04.788Z,4.38
2023-08-08T07:33:56.302Z,3.81
2023-08-08T07:34:47.748Z,4.32
2023-08-08T07:35:39.132Z,4.27
2023-08-08T07:36:30.574Z,3.87
2023-08-08T07:37:22.012Z,4.34
2023-08-08T07:38:13.416Z,4.50
2023-08-08T07:39:04.861Z,4.23
2023-08-08T07:39:56.245Z,4.37
2023-08-08T07:40:49.618Z,4.32
2023-08-08T07:41:41.289Z,4.32
2023-08-08T07:42:32.754Z,4.76
2023-08-08T07:43:24.144Z,4.56
2023-08-08T07:44:15.581Z,4.29
2023-08-08T07:45:07.707Z,4.05
2023-08-08T07:45:59.849Z,4.50
2023-08-08T07:46:51.462Z,4.53
2023-08-08T07:47:43.282Z,4.28
2023-08-08T07:48:34.739Z,4.44
2023-08-08T07:49:26.227Z,4.37
2023-08-08T07:50:17.702Z,3.97
2023-08-08T07:51:09.102Z,4.33
2023-08-08T07:52:00.701Z,4.70
2023-08-08T07:52:52.379Z,4.42
2023-08-08T07:53:47.266Z,4.14
2023-08-08T07:54:39.008Z,4.61
2023-08-08T07:55:30.425Z,4.51
2023-08-08T07:56:22.096Z,4.45
2023-08-08T07:57:13.506Z,4.60
2023-08-08T07:58:05.023Z,4.26
2023-08-08T07:58:56.453Z,4.68
2023-08-08T07:59:47.832Z,4.57
2023-08-08T08:00:39.562Z,4.97
2023-08-08T08:01:31.164Z,4.57
2023-08-08T08:02:23.347Z,4.53
2023-08-08T08:03:15.013Z,4.24
2023-08-08T08:04:06.542Z,4.43
2023-08-08T08:04:58.049Z,4.50
2023-08-08T08:05:49.521Z,4.29
2023-08-08T08:06:42.345Z,4.43
2023-08-08T08:07:35.801Z,4.68
2023-08-08T08:08:27.289Z,5.08
2023-08-08T08:09:18.712Z,4.37
2023-08-08T08:10:14.156Z,4.06
2023-08-08T08:11:07.985Z,4.47
2023-08-08T08:11:59.594Z,4.99
2023-08-08T08:12:51.143Z,4.70
2023-08-08T08:13:42.602Z,4.33
2023-08-08T08:14:34.113Z,4.28
2023-08-08T08:15:26.794Z,4.44
2023-08-08T08:16:18.249Z,4.62
2023-08-08T08:17:09.824Z,4.88
2023-08-08T08:18:01.390Z,4.74
2023-08-08T08:18:52.808Z,4.86
2023-08-08T08:19:44.485Z,4.49
2023-08-08T08:20:35.960Z,4.35
2023-08-08T08:21:27.347Z,4.11
2023-08-08T08:22:19.044Z,4.64
2023-08-08T08:23:10.799Z,4.44
2023-08-08T08:24:03.156Z,4.50
2023-08-08T08:24:54.635Z,4.41
2023-08-08T08:25:46.149Z,4.57
2023-08-08T08:26:38.003Z,4.58
2023-08-08T08:27:29.448Z,4.58
2023-08-08T08:28:21.408Z,4.59
2023-08-08T08:29:12.905Z,4.88
2023-08-08T08:30:10.696Z,4.79
2023-08-08T08:31:09.042Z,4.98
2023-08-08T08:32:00.941Z,4.97
2023-08-08T08:32:52.781Z,4.99
2023-08-08T08:33:44.356Z,5.05
2023-08-08T08:34:35.780Z,4.94
2023-08-08T08:35:27.277Z,4.82
2023-08-08T08:36:18.797Z,5.02
2023-08-08T08:37:10.259Z,5.13
2023-08-08T08:38:01.617Z,5.38
2023-08-08T08:38:53.354Z,5.30
2023-08-08T08:39:44.739Z,4.97
2023-08-08T08:40:38.866Z,5.27
2023-08-08T08:41:35.638Z,5.47
2023-08-08T08:42:30.809Z,5.55
2023-08-08T08:43:22.264Z,5.35
2023-08-08T08:44:16.968Z,5.27
2023-08-08T08:45:12.646Z,5.76
2023-08-08T08:46:04.955Z,5.69
2023-08-08T08:47:02.530Z,5.98
2023-08-08T08:47:57.084Z,5.42
2023-08-08T08:48:51.393Z,5.77
2023-08-08T08:49:46.587Z,6.28
2023-08-08T08:50:40.893Z,5.72
2023-08-08T08:51:32.492Z,5.96
2023-08-08T08:52:25.043Z,5.91
2023-08-08T08:53:18.594Z,5.73
2023-08-08T08:54:11.770Z,5.57
2023-08-08T08:55:05.303Z,5.79
2023-08-08T08:55:58.319Z,6.00
2023-08-08T08:56:51.196Z,6.15
2023-08-08T08:57:45.606Z,6.23
2023-08-08T08:58:37.159Z,5.97
2023-08-08T08:59:28.554Z,6.13
2023-08-08T09:00:20.420Z,5.89
2023-08-08T09:01:12.773Z,6.23
2023-08-08T09:02:04.871Z,5.84
2023-08-08T09:02:56.920Z,5.73
2023-08-08T09:03:49.179Z,5.99
2023-08-08T09:04:41.080Z,5.84
2023-08-08T09:05:34.157Z,5.74
2023-08-08T09:06:27.715Z,5.83
2023-08-08T09:07:23.694Z,6.29
2023-08-08T09:08:16.121Z,5.78
2023-08-08T09:09:16.498Z,5.86
2023-08-08T09:10:08.623Z,5.82
2023-08-08T09:11:00.086Z,5.65
2023-08-08T09:11:56.684Z,5.57
2023-08-08T09:12:49.848Z,5.57
2023-08-08T09:13:41.523Z,5.59
2023-08-08T09:14:33.180Z,5.87
2023-08-08T09:15:24.635Z,6.06
2023-08-08T09:16:16.786Z,5.73
2023-08-08T09:17:16.489Z,5.61
2023-08-08T09:18:08.686Z,5.79
2023-08-08T09:19:00.177Z,5.51
2023-08-08T09:19:54.925Z,5.47
2023-08-08T09:20:51.914Z,5.49
2023-08-08T09:21:43.344Z,6.06
2023-08-08T09:22:34.945Z,5.57
2023-08-08T09:23:26.712Z,4.95
2023-08-08T09:24:18.957Z,5.11
2023-08-08T09:25:10.465Z,5.44
2023-08-08T09:26:01.897Z,5.12
2023-08-08T09:26:53.304Z,5.03
2023-08-08T09:27:45.161Z,5.24
2023-08-08T09:28:36.774Z,5.79
2023-08-08T09:29:28.247Z,5.33
2023-08-08T09:30:20.660Z,5.48
2023-08-08T09:31:12.853Z,5.68
2023-08-08T09:32:06.041Z,5.56
2023-08-08T09:33:02.228Z,5.53
2023-08-08T09:34:01.808Z,5.46
2023-08-08T09:34:53.182Z,5.18
2023-08-08T09:35:45.334Z,5.44
2023-08-08T09:36:37.700Z,5.19
2023-08-08T09:37:29.876Z,5.61
2023-08-08T09:38:21.500Z,5.75
2023-08-08T09:39:12.906Z,5.14
2023-08-08T09:40:08.571Z,5.41
2023-08-08T09:40:59.995Z,5.13
2023-08-08T09:41:51.405Z,5.38
2023-08-08T09:42:43.016Z,5.62
2023-08-08T09:43:34.602Z,5.50
2023-08-08T09:44:28.792Z,5.23
2023-08-08T09:45:20.460Z,5.18
2023-08-08T09:46:12.718Z,4.83
2023-08-08T09:47:04.329Z,5.31
2023-08-08T09:47:55.769Z,5.61
2023-08-08T09:48:47.758Z,5.41
2023-08-08T09:49:40.257Z,5.19
2023-08-08T09:50:34.208Z,5.16
2023-08-08T09:51:27.942Z,5.28
2023-08-08T09:52:20.460Z,5.74
2023-08-08T09:53:13.401Z,5.21
2023-08-08T09:54:07.292Z,5.54
2023-08-08T09:55:00.674Z,5.06
2023-08-08T09:55:55.354Z,5.03
2023-08-08T09:56:50.144Z,5.70
2023-08-08T09:57:42.862Z,5.42
2023-08-08T09:58:35.181Z,5.72
2023-08-08T09:59:27.130Z,5.90
2023-08-08T10:00:21.817Z,5.52
2023-08-08T10:01:15.405Z,4.79
2023-08-08T10:02:15.802Z,5.16
2023-08-08T10:03:08.160Z,5.29
2023-08-08T10:04:00.479Z,5.49
2023-08-08T10:04:53.775Z,5.06
2023-08-08T10:05:47.202Z,4.91
2023-08-08T10:06:38.607Z,4.59
2023-08-08T10:07:30.087Z,4.66
2023-08-08T10:08:22.218Z,4.63
2023-08-08T10:09:13.694Z,5.05
2023-08-08T10:10:05.899Z,5.00
2023-08-08T10:10:57.846Z,4.91
2023-08-08T10:11:49.624Z,5.12
2023-08-08T10:12:42.546Z,4.85
2023-08-08T10:13:36.524Z,4.94
2023-08-08T10:14:33.848Z,5.23
2023-08-08T10:15:28.265Z,4.79
2023-08-08T10:16:20.327Z,4.77
2023-08-08T10:17:16.077Z,4.68
2023-08-08T10:18:08.130Z,5.18
2023-08-08T10:19:03.080Z,4.78
2023-08-08T10:19:56.251Z,5.02
2023-08-08T10:20:50.345Z,4.80
2023-08-08T10:21:45.148Z,4.85
2023-08-08T10:22:36.780Z,4.42
2023-08-08T10:23:37.964Z,4.66
2023-08-08T10:24:35.451Z,4.13
2023-08-08T10:25:29.198Z,4.71
2023-08-08T10:26:21.023Z,4.65
2023-08-08T10:27:12.428Z,4.86
2023-08-08T10:28:15.951Z,4.55
2023-08-08T10:29:20.246Z,4.27
2023-08-08T10:30:13.138Z,4.75
2023-08-08T10:31:07.245Z,4.51
2023-08-08T10:32:04.637Z,4.38
2023-08-08T10:32:58.136Z,4.72
2023-08-08T10:33:50.503Z,4.17
2023-08-08T10:34:44.289Z,4.20
2023-08-08T10:35:38.755Z,4.84
2023-08-08T10:36:51.244Z,4.18
2023-08-08T10:37:54.034Z,4.23
2023-08-08T10:38:51.390Z,4.43
2023-08-08T10:39:53.911Z,4.50
2023-08-08T10:40:45.328Z,4.75
2023-08-08T10:41:49.471Z,4.45
2023-08-08T10:42:46.734Z,4.09
2023-08-08T10:43:38.736Z,4.39
2023-08-08T10:44:30.192Z,3.96
2023-08-08T10:45:21.580Z,4.20
2023-08-08T10:46:14.492Z,4.50
2023-08-08T10:47:06.645Z,4.32
2023-08-08T10:48:09.395Z,4.42
2023-08-08T10:49:05.882Z,4.34
2023-08-08T10:50:08.515Z,4.24
2023-08-08T10:51:01.691Z,4.48
2023-08-08T10:51:53.436Z,4.05
2023-08-08T10:52:53.984Z,4.33
2023-08-08T10:53:46.984Z,4.36
2023-08-08T10:54:38.489Z,4.34
2023-08-08T10:55:36.881Z,4.25
2023-08-08T10:56:31.997Z,4.10
2023-08-08T10:57:28.380Z,3.96
2023-08-08T10:58:21.014Z,3.60
2023-08-08T10:59:24.320Z,4.03
2023-08-08T11:00:19.702Z,3.90
2023-08-08T11:01:13.518Z,3.67
2023-08-08T11:02:05.395Z,3.78
2023-08-08T11:02:58.909Z,3.57
2023-08-08T11:03:51.014Z,3.79
2023-08-08T11:04:44.079Z,3.23
2023-08-08T11:05:37.434Z,3.68
2023-08-08T11:06:29.303Z,3.22
2023-08-08T11:07:20.971Z,3.63
2023-08-08T11:08:12.439Z,3.33
2023-08-08T11:09:06.781Z,3.67
2023-08-08T11:09:58.528Z,3.59
2023-08-08T11:10:53.976Z,3.48
2023-08-08T11:11:46.754Z,3.51
2023-08-08T11:12:38.272Z,3.37
2023-08-08T11:13:30.038Z,3.07
2023-08-08T11:14:23.882Z,3.30
2023-08-08T11:15:15.351Z,3.29
2023-08-08T11:16:06.875Z,3.46
2023-08-08T11:16:58.262Z,3.37
2023-08-08T11:17:50.448Z,3.20
2023-08-08T11:18:43.756Z,3.00
2023-08-08T11:19:40.789Z,3.01
2023-08-08T11:20:34.892Z,3.51
2023-08-08T11:21:26.318Z,3.34
2023-08-08T11:22:17.766Z,3.48
2023-08-08T11:23:11.727Z,3.20
2023-08-08T11:24:05.259Z,3.51
2023-08-08T11:25:03.764Z,3.33
2023-08-08T11:26:50.329Z,3.02
2023-08-08T11:27:50.026Z,3.38
2023-08-08T11:28:50.115Z,3.52
2023-08-08T11:29:41.555Z,3.09
2023-08-08T11:30:37.557Z,3.26
2023-08-08T11:31:30.439Z,2.67
2023-08-08T11:32:22.959Z,3.14
2023-08-08T11:33:16.353Z,2.98
2023-08-08T11:34:11.031Z,2.98
2023-08-08T11:35:03.247Z,3.13
2023-08-08T11:35:54.948Z,3.01
2023-08-08T11:36:47.551Z,2.97
2023-08-08T11:37:39.797Z,2.88
2023-08-08T11:38:31.516Z,3.23
2023-08-08T11:39:23.260Z,3.12
2023-08-08T11:40:15.881Z,3.36
2023-08-08T11:41:07.672Z,3.10